sensor_id;sensor_type;location;lat;lon;timestamp;P1;durP1;ratioP1;P2;durP2;ratioP2
26920;SDS011;14483;47.844;9.660;2022-12-07T00:00:05;22.77;;;12.63;;
26920;SDS011;14483;47.844;9.660;2022-12-07T00:02:32;21.67;;;12.82;;
26920;SDS011;14483;47.844;9.660;2022-12-07T00:04:58;22.95;;;12.60;;
26920;SDS011;14483;47.844;9.660;2022-12-07T00:07:24;23.83;;;13.23;;
26920;SDS011;14483;47.844;9.660;2022-12-07T00:09:52;24.00;;;12.88;;
26920;SDS011;14483;47.844;9.660;2022-12-07T00:12:19;25.10;;;11.88;;
26920;SDS011;14483;47.844;9.660;2022-12-07T00:14:45;23.05;;;11.95;;
26920;SDS011;14483;47.844;9.660;2022-12-07T00:17:12;21.05;;;11.85;;
26920;SDS011;14483;47.844;9.660;2022-12-07T00:19:39;20.83;;;11.48;;
26920;SDS011;14483;47.844;9.660;2022-12-07T00:22:05;21.63;;;11.55;;
26920;SDS011;14483;47.844;9.660;2022-12-07T00:24:31;23.08;;;11.25;;
26920;SDS011;14483;47.844;9.660;2022-12-07T00:26:59;21.70;;;11.15;;
26920;SDS011;14483;47.844;9.660;2022-12-07T00:29:25;21.75;;;12.25;;
26920;SDS011;14483;47.844;9.660;2022-12-07T00:31:52;20.90;;;11.68;;
26920;SDS011;14483;47.844;9.660;2022-12-07T00:34:18;22.15;;;12.38;;
26920;SDS011;14483;47.844;9.660;2022-12-07T00:36:45;23.38;;;12.57;;
26920;SDS011;14483;47.844;9.660;2022-12-07T00:39:11;20.50;;;12.32;;
26920;SDS011;14483;47.844;9.660;2022-12-07T00:41:38;19.02;;;11.00;;
26920;SDS011;14483;47.844;9.660;2022-12-07T00:44:06;22.00;;;11.65;;
26920;SDS011;14483;47.844;9.660;2022-12-07T00:46:32;21.80;;;11.63;;
26920;SDS011;14483;47.844;9.660;2022-12-07T00:48:59;23.23;;;13.18;;
26920;SDS011;14483;47.844;9.660;2022-12-07T00:51:25;28.90;;;15.32;;
26920;SDS011;14483;47.844;9.660;2022-12-07T00:53:52;25.33;;;14.10;;
26920;SDS011;14483;47.844;9.660;2022-12-07T00:56:19;25.25;;;12.02;;
26920;SDS011;14483;47.844;9.660;2022-12-07T00:58:49;25.77;;;12.55;;
26920;SDS011;14483;47.844;9.660;2022-12-07T01:01:17;22.25;;;12.77;;
26920;SDS011;14483;47.844;9.660;2022-12-07T01:03:43;27.27;;;14.30;;
26920;SDS011;14483;47.844;9.660;2022-12-07T01:06:09;25.02;;;13.07;;
26920;SDS011;14483;47.844;9.660;2022-12-07T01:08:39;24.77;;;13.13;;
26920;SDS011;14483;47.844;9.660;2022-12-07T01:11:06;25.63;;;13.38;;
26920;SDS011;14483;47.844;9.660;2022-12-07T01:13:33;31.70;;;14.60;;
26920;SDS011;14483;47.844;9.660;2022-12-07T01:16:01;29.73;;;15.35;;
26920;SDS011;14483;47.844;9.660;2022-12-07T01:18:29;34.65;;;15.98;;
26920;SDS011;14483;47.844;9.660;2022-12-07T01:21:00;36.42;;;16.13;;
26920;SDS011;14483;47.844;9.660;2022-12-07T01:23:26;34.70;;;15.75;;
26920;SDS011;14483;47.844;9.660;2022-12-07T01:25:54;33.13;;;17.10;;
26920;SDS011;14483;47.844;9.660;2022-12-07T01:28:20;35.90;;;15.07;;
26920;SDS011;14483;47.844;9.660;2022-12-07T01:30:54;32.72;;;16.45;;
26920;SDS011;14483;47.844;9.660;2022-12-07T01:33:20;34.60;;;16.48;;
26920;SDS011;14483;47.844;9.660;2022-12-07T01:35:48;33.90;;;17.30;;
26920;SDS011;14483;47.844;9.660;2022-12-07T01:38:14;36.55;;;16.70;;
26920;SDS011;14483;47.844;9.660;2022-12-07T01:40:40;36.58;;;17.00;;
26920;SDS011;14483;47.844;9.660;2022-12-07T01:43:09;40.88;;;18.30;;
26920;SDS011;14483;47.844;9.660;2022-12-07T01:45:40;31.63;;;13.75;;
26920;SDS011;14483;47.844;9.660;2022-12-07T01:48:07;42.75;;;18.67;;
26920;SDS011;14483;47.844;9.660;2022-12-07T01:50:34;45.38;;;18.83;;
26920;SDS011;14483;47.844;9.660;2022-12-07T01:53:03;45.45;;;18.67;;
26920;SDS011;14483;47.844;9.660;2022-12-07T01:55:30;41.20;;;18.75;;
26920;SDS011;14483;47.844;9.660;2022-12-07T01:57:56;41.80;;;18.27;;
26920;SDS011;14483;47.844;9.660;2022-12-07T02:00:23;37.90;;;17.38;;
26920;SDS011;14483;47.844;9.660;2022-12-07T02:02:51;39.80;;;18.38;;
26920;SDS011;14483;47.844;9.660;2022-12-07T02:05:19;37.55;;;18.52;;
26920;SDS011;14483;47.844;9.660;2022-12-07T02:07:46;42.08;;;17.60;;
26920;SDS011;14483;47.844;9.660;2022-12-07T02:10:16;40.53;;;16.15;;
26920;SDS011;14483;47.844;9.660;2022-12-07T02:12:42;25.88;;;11.90;;
26920;SDS011;14483;47.844;9.660;2022-12-07T02:15:10;26.50;;;11.85;;
26920;SDS011;14483;47.844;9.660;2022-12-07T02:17:37;31.35;;;12.75;;
26920;SDS011;14483;47.844;9.660;2022-12-07T02:20:11;23.90;;;11.88;;
26920;SDS011;14483;47.844;9.660;2022-12-07T02:25:41;27.98;;;12.93;;
26920;SDS011;14483;47.844;9.660;2022-12-07T02:28:12;21.05;;;10.45;;
26920;SDS011;14483;47.844;9.660;2022-12-07T02:30:45;22.73;;;10.07;;
26920;SDS011;14483;47.844;9.660;2022-12-07T02:33:14;19.65;;;9.07;;
26920;SDS011;14483;47.844;9.660;2022-12-07T02:35:42;15.10;;;7.40;;
26920;SDS011;14483;47.844;9.660;2022-12-07T02:38:11;15.18;;;7.35;;
26920;SDS011;14483;47.844;9.660;2022-12-07T02:40:40;12.77;;;6.80;;
26920;SDS011;14483;47.844;9.660;2022-12-07T02:43:09;13.25;;;6.90;;
26920;SDS011;14483;47.844;9.660;2022-12-07T02:45:36;12.93;;;7.13;;
26920;SDS011;14483;47.844;9.660;2022-12-07T02:48:06;15.25;;;7.40;;
26920;SDS011;14483;47.844;9.660;2022-12-07T02:50:33;13.40;;;6.80;;
26920;SDS011;14483;47.844;9.660;2022-12-07T02:53:00;10.25;;;5.97;;
26920;SDS011;14483;47.844;9.660;2022-12-07T02:55:27;9.75;;;6.30;;
26920;SDS011;14483;47.844;9.660;2022-12-07T02:57:59;11.15;;;6.72;;
26920;SDS011;14483;47.844;9.660;2022-12-07T03:00:29;11.75;;;6.43;;
26920;SDS011;14483;47.844;9.660;2022-12-07T03:02:58;11.85;;;6.68;;
26920;SDS011;14483;47.844;9.660;2022-12-07T03:05:36;11.85;;;6.15;;
26920;SDS011;14483;47.844;9.660;2022-12-07T03:08:06;13.13;;;6.82;;
26920;SDS011;14483;47.844;9.660;2022-12-07T03:10:39;13.10;;;7.05;;
26920;SDS011;14483;47.844;9.660;2022-12-07T03:13:12;12.93;;;6.22;;
26920;SDS011;14483;47.844;9.660;2022-12-07T03:15:43;14.20;;;6.47;;
26920;SDS011;14483;47.844;9.660;2022-12-07T03:18:12;9.80;;;5.82;;
26920;SDS011;14483;47.844;9.660;2022-12-07T03:20:41;12.57;;;6.30;;
26920;SDS011;14483;47.844;9.660;2022-12-07T03:23:10;11.18;;;6.18;;
26920;SDS011;14483;47.844;9.660;2022-12-07T03:25:38;12.55;;;6.38;;
26920;SDS011;14483;47.844;9.660;2022-12-07T03:28:06;9.63;;;5.82;;
26920;SDS011;14483;47.844;9.660;2022-12-07T03:30:34;13.30;;;6.50;;
26920;SDS011;14483;47.844;9.660;2022-12-07T03:33:04;11.00;;;6.30;;
26920;SDS011;14483;47.844;9.660;2022-12-07T03:35:33;13.38;;;5.97;;
26920;SDS011;14483;47.844;9.660;2022-12-07T03:38:02;11.85;;;5.95;;
26920;SDS011;14483;47.844;9.660;2022-12-07T03:40:33;10.48;;;6.22;;
26920;SDS011;14483;47.844;9.660;2022-12-07T03:43:01;10.65;;;5.65;;
26920;SDS011;14483;47.844;9.660;2022-12-07T03:45:30;13.45;;;7.00;;
26920;SDS011;14483;47.844;9.660;2022-12-07T03:48:00;11.93;;;5.85;;
26920;SDS011;14483;47.844;9.660;2022-12-07T03:50:29;10.68;;;5.68;;
26920;SDS011;14483;47.844;9.660;2022-12-07T03:52:58;11.95;;;6.38;;
26920;SDS011;14483;47.844;9.660;2022-12-07T03:55:27;11.88;;;5.53;;
26920;SDS011;14483;47.844;9.660;2022-12-07T03:57:55;13.40;;;6.28;;
26920;SDS011;14483;47.844;9.660;2022-12-07T04:00:22;14.32;;;6.78;;
26920;SDS011;14483;47.844;9.660;2022-12-07T04:02:51;12.35;;;7.28;;
26920;SDS011;14483;47.844;9.660;2022-12-07T04:05:17;12.93;;;7.03;;
26920;SDS011;14483;47.844;9.660;2022-12-07T04:07:44;12.50;;;6.18;;
26920;SDS011;14483;47.844;9.660;2022-12-07T04:10:10;13.43;;;7.45;;
26920;SDS011;14483;47.844;9.660;2022-12-07T04:12:38;11.65;;;6.60;;
26920;SDS011;14483;47.844;9.660;2022-12-07T04:15:05;13.70;;;6.95;;
26920;SDS011;14483;47.844;9.660;2022-12-07T04:17:32;13.48;;;6.43;;
26920;SDS011;14483;47.844;9.660;2022-12-07T04:19:58;14.70;;;7.70;;
26920;SDS011;14483;47.844;9.660;2022-12-07T04:22:24;11.55;;;6.75;;
26920;SDS011;14483;47.844;9.660;2022-12-07T04:24:51;13.55;;;7.00;;
26920;SDS011;14483;47.844;9.660;2022-12-07T04:27:17;15.40;;;7.55;;
26920;SDS011;14483;47.844;9.660;2022-12-07T04:29:45;11.52;;;6.63;;
26920;SDS011;14483;47.844;9.660;2022-12-07T04:32:12;16.02;;;6.38;;
26920;SDS011;14483;47.844;9.660;2022-12-07T04:34:38;12.20;;;6.93;;
26920;SDS011;14483;47.844;9.660;2022-12-07T04:37:04;11.65;;;6.35;;
26920;SDS011;14483;47.844;9.660;2022-12-07T04:39:31;12.82;;;6.60;;
26920;SDS011;14483;47.844;9.660;2022-12-07T04:41:58;11.57;;;6.05;;
26920;SDS011;14483;47.844;9.660;2022-12-07T04:44:25;12.70;;;5.70;;
26920;SDS011;14483;47.844;9.660;2022-12-07T04:46:54;13.40;;;6.40;;
26920;SDS011;14483;47.844;9.660;2022-12-07T04:49:20;11.55;;;5.88;;
26920;SDS011;14483;47.844;9.660;2022-12-07T04:51:47;13.00;;;7.00;;
26920;SDS011;14483;47.844;9.660;2022-12-07T04:54:14;12.13;;;6.43;;
26920;SDS011;14483;47.844;9.660;2022-12-07T04:56:40;10.88;;;5.78;;
26920;SDS011;14483;47.844;9.660;2022-12-07T04:59:06;13.70;;;6.57;;
26920;SDS011;14483;47.844;9.660;2022-12-07T05:01:33;13.55;;;7.85;;
26920;SDS011;14483;47.844;9.660;2022-12-07T05:04:01;13.63;;;7.32;;
26920;SDS011;14483;47.844;9.660;2022-12-07T05:06:27;15.00;;;7.88;;
26920;SDS011;14483;47.844;9.660;2022-12-07T05:08:54;12.32;;;6.82;;
26920;SDS011;14483;47.844;9.660;2022-12-07T05:11:20;12.02;;;6.43;;
26920;SDS011;14483;47.844;9.660;2022-12-07T05:14:06;13.10;;;6.95;;
26920;SDS011;14483;47.844;9.660;2022-12-07T05:16:33;11.50;;;6.38;;
26920;SDS011;14483;47.844;9.660;2022-12-07T05:19:01;12.63;;;7.10;;
26920;SDS011;14483;47.844;9.660;2022-12-07T05:21:28;13.70;;;6.72;;
26920;SDS011;14483;47.844;9.660;2022-12-07T05:23:54;13.10;;;7.32;;
26920;SDS011;14483;47.844;9.660;2022-12-07T05:26:20;16.85;;;8.40;;
26920;SDS011;14483;47.844;9.660;2022-12-07T05:28:49;22.15;;;10.15;;
26920;SDS011;14483;47.844;9.660;2022-12-07T05:31:16;24.30;;;9.88;;
26920;SDS011;14483;47.844;9.660;2022-12-07T05:33:42;17.10;;;8.23;;
26920;SDS011;14483;47.844;9.660;2022-12-07T05:36:10;11.48;;;6.00;;
26920;SDS011;14483;47.844;9.660;2022-12-07T05:38:36;13.80;;;6.78;;
26920;SDS011;14483;47.844;9.660;2022-12-07T05:41:03;13.75;;;7.28;;
26920;SDS011;14483;47.844;9.660;2022-12-07T05:43:30;18.05;;;8.00;;
26920;SDS011;14483;47.844;9.660;2022-12-07T05:45:56;12.45;;;7.15;;
26920;SDS011;14483;47.844;9.660;2022-12-07T05:48:22;20.63;;;8.05;;
26920;SDS011;14483;47.844;9.660;2022-12-07T05:50:49;15.27;;;7.40;;
26920;SDS011;14483;47.844;9.660;2022-12-07T05:53:17;14.63;;;7.63;;
26920;SDS011;14483;47.844;9.660;2022-12-07T05:55:43;17.52;;;7.15;;
26920;SDS011;14483;47.844;9.660;2022-12-07T05:58:09;12.40;;;6.35;;
26920;SDS011;14483;47.844;9.660;2022-12-07T06:00:53;13.43;;;6.20;;
26920;SDS011;14483;47.844;9.660;2022-12-07T06:03:20;13.98;;;6.47;;
26920;SDS011;14483;47.844;9.660;2022-12-07T06:05:46;12.93;;;6.80;;
26920;SDS011;14483;47.844;9.660;2022-12-07T06:08:13;11.98;;;6.25;;
26920;SDS011;14483;47.844;9.660;2022-12-07T06:10:41;12.00;;;6.70;;
26920;SDS011;14483;47.844;9.660;2022-12-07T06:13:08;13.13;;;7.18;;
26920;SDS011;14483;47.844;9.660;2022-12-07T06:15:34;14.38;;;6.05;;
26920;SDS011;14483;47.844;9.660;2022-12-07T06:18:01;12.35;;;6.88;;
26920;SDS011;14483;47.844;9.660;2022-12-07T06:20:27;14.13;;;6.25;;
26920;SDS011;14483;47.844;9.660;2022-12-07T06:22:54;12.43;;;6.63;;
26920;SDS011;14483;47.844;9.660;2022-12-07T06:25:20;12.70;;;6.97;;
26920;SDS011;14483;47.844;9.660;2022-12-07T06:27:48;13.95;;;7.30;;
26920;SDS011;14483;47.844;9.660;2022-12-07T06:30:14;12.70;;;6.65;;
26920;SDS011;14483;47.844;9.660;2022-12-07T06:32:40;13.27;;;6.18;;
26920;SDS011;14483;47.844;9.660;2022-12-07T06:35:07;11.45;;;5.97;;
26920;SDS011;14483;47.844;9.660;2022-12-07T06:37:34;10.98;;;5.55;;
26920;SDS011;14483;47.844;9.660;2022-12-07T06:40:00;12.23;;;5.93;;
26920;SDS011;14483;47.844;9.660;2022-12-07T06:42:26;12.57;;;6.82;;
26920;SDS011;14483;47.844;9.660;2022-12-07T06:44:54;13.95;;;6.68;;
26920;SDS011;14483;47.844;9.660;2022-12-07T06:47:20;12.85;;;7.82;;
26920;SDS011;14483;47.844;9.660;2022-12-07T06:49:47;13.00;;;6.38;;
26920;SDS011;14483;47.844;9.660;2022-12-07T06:52:13;11.38;;;5.82;;
26920;SDS011;14483;47.844;9.660;2022-12-07T06:54:39;12.65;;;6.45;;
26920;SDS011;14483;47.844;9.660;2022-12-07T06:57:06;17.13;;;6.47;;
26920;SDS011;14483;47.844;9.660;2022-12-07T06:59:32;15.25;;;5.93;;
26920;SDS011;14483;47.844;9.660;2022-12-07T07:02:00;12.18;;;6.68;;
26920;SDS011;14483;47.844;9.660;2022-12-07T07:04:26;14.00;;;6.95;;
26920;SDS011;14483;47.844;9.660;2022-12-07T07:06:52;14.45;;;6.63;;
26920;SDS011;14483;47.844;9.660;2022-12-07T07:09:19;12.93;;;5.78;;
26920;SDS011;14483;47.844;9.660;2022-12-07T07:11:45;13.43;;;6.07;;
26920;SDS011;14483;47.844;9.660;2022-12-07T07:14:11;20.40;;;11.38;;
26920;SDS011;14483;47.844;9.660;2022-12-07T07:16:41;15.60;;;8.48;;
26920;SDS011;14483;47.844;9.660;2022-12-07T07:19:08;33.20;;;13.05;;
26920;SDS011;14483;47.844;9.660;2022-12-07T07:21:35;18.20;;;8.90;;
26920;SDS011;14483;47.844;9.660;2022-12-07T07:24:02;16.50;;;8.35;;
26920;SDS011;14483;47.844;9.660;2022-12-07T07:26:28;16.80;;;7.95;;
26920;SDS011;14483;47.844;9.660;2022-12-07T07:28:55;16.17;;;7.22;;
26920;SDS011;14483;47.844;9.660;2022-12-07T07:31:21;12.00;;;6.68;;
26920;SDS011;14483;47.844;9.660;2022-12-07T07:33:48;20.70;;;8.02;;
26920;SDS011;14483;47.844;9.660;2022-12-07T07:36:15;12.25;;;6.22;;
26920;SDS011;14483;47.844;9.660;2022-12-07T07:38:42;15.65;;;8.05;;
26920;SDS011;14483;47.844;9.660;2022-12-07T07:41:08;16.33;;;8.15;;
26920;SDS011;14483;47.844;9.660;2022-12-07T07:43:34;23.65;;;10.55;;
26920;SDS011;14483;47.844;9.660;2022-12-07T07:46:01;36.40;;;13.88;;
26920;SDS011;14483;47.844;9.660;2022-12-07T07:48:27;33.30;;;12.52;;
26920;SDS011;14483;47.844;9.660;2022-12-07T07:50:53;22.70;;;9.77;;
26920;SDS011;14483;47.844;9.660;2022-12-07T07:53:21;17.63;;;7.60;;
26920;SDS011;14483;47.844;9.660;2022-12-07T07:55:51;24.23;;;11.05;;
26920;SDS011;14483;47.844;9.660;2022-12-07T07:58:18;26.95;;;10.68;;
26920;SDS011;14483;47.844;9.660;2022-12-07T08:00:44;36.70;;;12.50;;
26920;SDS011;14483;47.844;9.660;2022-12-07T08:03:10;35.15;;;13.13;;
26920;SDS011;14483;47.844;9.660;2022-12-07T08:05:37;24.58;;;9.98;;
26920;SDS011;14483;47.844;9.660;2022-12-07T08:08:04;21.30;;;10.15;;
26920;SDS011;14483;47.844;9.660;2022-12-07T08:10:31;15.48;;;7.60;;
26920;SDS011;14483;47.844;9.660;2022-12-07T08:12:59;18.90;;;8.70;;
26920;SDS011;14483;47.844;9.660;2022-12-07T08:15:39;14.18;;;7.00;;
26920;SDS011;14483;47.844;9.660;2022-12-07T08:18:06;14.80;;;7.10;;
26920;SDS011;14483;47.844;9.660;2022-12-07T08:20:33;18.67;;;8.95;;
26920;SDS011;14483;47.844;9.660;2022-12-07T08:23:00;15.10;;;7.25;;
26920;SDS011;14483;47.844;9.660;2022-12-07T08:25:27;16.42;;;8.27;;
26920;SDS011;14483;47.844;9.660;2022-12-07T08:27:55;14.73;;;8.50;;
26920;SDS011;14483;47.844;9.660;2022-12-07T08:30:21;20.70;;;9.68;;
26920;SDS011;14483;47.844;9.660;2022-12-07T08:32:47;15.60;;;7.97;;
26920;SDS011;14483;47.844;9.660;2022-12-07T08:35:14;15.25;;;7.25;;
26920;SDS011;14483;47.844;9.660;2022-12-07T08:37:40;17.20;;;8.82;;
26920;SDS011;14483;47.844;9.660;2022-12-07T08:40:08;13.82;;;8.05;;
26920;SDS011;14483;47.844;9.660;2022-12-07T08:42:34;19.60;;;10.07;;
26920;SDS011;14483;47.844;9.660;2022-12-07T08:45:07;14.57;;;8.23;;
26920;SDS011;14483;47.844;9.660;2022-12-07T08:47:33;17.25;;;8.90;;
26920;SDS011;14483;47.844;9.660;2022-12-07T08:50:00;14.68;;;7.50;;
26920;SDS011;14483;47.844;9.660;2022-12-07T08:52:28;15.60;;;8.63;;
26920;SDS011;14483;47.844;9.660;2022-12-07T08:54:55;15.35;;;7.75;;
26920;SDS011;14483;47.844;9.660;2022-12-07T08:57:22;18.13;;;8.63;;
26920;SDS011;14483;47.844;9.660;2022-12-07T08:59:48;17.02;;;7.93;;
26920;SDS011;14483;47.844;9.660;2022-12-07T09:02:16;18.15;;;8.80;;
26920;SDS011;14483;47.844;9.660;2022-12-07T09:04:42;17.52;;;9.13;;
26920;SDS011;14483;47.844;9.660;2022-12-07T09:07:08;18.33;;;9.38;;
26920;SDS011;14483;47.844;9.660;2022-12-07T09:09:35;20.88;;;9.82;;
26920;SDS011;14483;47.844;9.660;2022-12-07T09:12:01;17.52;;;9.45;;
26920;SDS011;14483;47.844;9.660;2022-12-07T09:14:28;19.45;;;10.52;;
26920;SDS011;14483;47.844;9.660;2022-12-07T09:16:54;21.00;;;10.07;;
26920;SDS011;14483;47.844;9.660;2022-12-07T09:19:22;22.70;;;9.77;;
26920;SDS011;14483;47.844;9.660;2022-12-07T09:21:48;16.25;;;8.40;;
26920;SDS011;14483;47.844;9.660;2022-12-07T09:24:15;17.88;;;9.32;;
26920;SDS011;14483;47.844;9.660;2022-12-07T09:26:41;18.35;;;9.60;;
26920;SDS011;14483;47.844;9.660;2022-12-07T09:29:07;17.13;;;8.98;;
26920;SDS011;14483;47.844;9.660;2022-12-07T09:31:35;16.55;;;9.35;;
26920;SDS011;14483;47.844;9.660;2022-12-07T09:34:01;16.50;;;9.30;;
26920;SDS011;14483;47.844;9.660;2022-12-07T09:36:31;17.98;;;8.48;;
26920;SDS011;14483;47.844;9.660;2022-12-07T09:38:57;16.98;;;8.25;;
26920;SDS011;14483;47.844;9.660;2022-12-07T09:41:24;15.27;;;8.45;;
26920;SDS011;14483;47.844;9.660;2022-12-07T09:43:51;17.13;;;9.35;;
26920;SDS011;14483;47.844;9.660;2022-12-07T09:46:18;15.50;;;8.48;;
26920;SDS011;14483;47.844;9.660;2022-12-07T09:48:45;16.17;;;9.50;;
26920;SDS011;14483;47.844;9.660;2022-12-07T09:51:14;15.93;;;8.88;;
26920;SDS011;14483;47.844;9.660;2022-12-07T09:53:42;17.13;;;9.20;;
26920;SDS011;14483;47.844;9.660;2022-12-07T09:56:09;17.25;;;9.77;;
26920;SDS011;14483;47.844;9.660;2022-12-07T09:58:37;15.95;;;8.95;;
26920;SDS011;14483;47.844;9.660;2022-12-07T10:01:09;19.20;;;10.35;;
26920;SDS011;14483;47.844;9.660;2022-12-07T10:03:37;17.55;;;8.90;;
26920;SDS011;14483;47.844;9.660;2022-12-07T10:06:04;20.42;;;10.55;;
26920;SDS011;14483;47.844;9.660;2022-12-07T10:08:31;19.00;;;10.25;;
26920;SDS011;14483;47.844;9.660;2022-12-07T10:10:59;17.55;;;9.85;;
26920;SDS011;14483;47.844;9.660;2022-12-07T10:13:34;20.00;;;9.88;;
26920;SDS011;14483;47.844;9.660;2022-12-07T10:16:01;20.13;;;10.70;;
26920;SDS011;14483;47.844;9.660;2022-12-07T10:18:29;17.33;;;9.75;;
26920;SDS011;14483;47.844;9.660;2022-12-07T10:21:08;17.48;;;9.77;;
26920;SDS011;14483;47.844;9.660;2022-12-07T10:23:36;17.45;;;9.20;;
26920;SDS011;14483;47.844;9.660;2022-12-07T10:28:45;14.88;;;8.20;;
26920;SDS011;14483;47.844;9.660;2022-12-07T10:31:15;15.32;;;7.60;;
26920;SDS011;14483;47.844;9.660;2022-12-07T10:33:48;15.57;;;8.07;;
26920;SDS011;14483;47.844;9.660;2022-12-07T10:36:16;14.15;;;7.93;;
26920;SDS011;14483;47.844;9.660;2022-12-07T10:38:44;15.23;;;7.65;;
26920;SDS011;14483;47.844;9.660;2022-12-07T10:41:11;15.75;;;8.13;;
26920;SDS011;14483;47.844;9.660;2022-12-07T10:43:37;13.35;;;7.45;;
26920;SDS011;14483;47.844;9.660;2022-12-07T10:48:58;15.60;;;8.77;;
26920;SDS011;14483;47.844;9.660;2022-12-07T10:51:29;13.75;;;7.38;;
26920;SDS011;14483;47.844;9.660;2022-12-07T10:54:00;12.23;;;6.90;;
26920;SDS011;14483;47.844;9.660;2022-12-07T10:56:39;17.60;;;7.70;;
26920;SDS011;14483;47.844;9.660;2022-12-07T10:59:17;13.23;;;7.43;;
26920;SDS011;14483;47.844;9.660;2022-12-07T11:01:48;15.00;;;6.80;;
26920;SDS011;14483;47.844;9.660;2022-12-07T11:04:20;13.68;;;7.20;;
26920;SDS011;14483;47.844;9.660;2022-12-07T11:06:51;10.95;;;6.28;;
26920;SDS011;14483;47.844;9.660;2022-12-07T11:12:05;11.48;;;6.55;;
26920;SDS011;14483;47.844;9.660;2022-12-07T11:14:36;12.65;;;7.13;;
26920;SDS011;14483;47.844;9.660;2022-12-07T11:17:05;14.75;;;8.05;;
26920;SDS011;14483;47.844;9.660;2022-12-07T11:19:42;15.25;;;8.40;;
26920;SDS011;14483;47.844;9.660;2022-12-07T11:22:16;14.50;;;7.57;;
26920;SDS011;14483;47.844;9.660;2022-12-07T11:24:47;12.50;;;6.60;;
26920;SDS011;14483;47.844;9.660;2022-12-07T11:27:19;13.05;;;7.32;;
26920;SDS011;14483;47.844;9.660;2022-12-07T11:29:54;16.48;;;7.93;;
26920;SDS011;14483;47.844;9.660;2022-12-07T11:32:25;16.25;;;8.13;;
26920;SDS011;14483;47.844;9.660;2022-12-07T11:35:02;17.45;;;7.70;;
26920;SDS011;14483;47.844;9.660;2022-12-07T11:37:32;13.75;;;7.22;;
26920;SDS011;14483;47.844;9.660;2022-12-07T11:39:59;17.13;;;7.70;;
26920;SDS011;14483;47.844;9.660;2022-12-07T11:42:27;13.25;;;7.85;;
26920;SDS011;14483;47.844;9.660;2022-12-07T11:44:56;14.48;;;8.48;;
26920;SDS011;14483;47.844;9.660;2022-12-07T11:47:28;13.60;;;8.18;;
26920;SDS011;14483;47.844;9.660;2022-12-07T11:49:56;16.05;;;7.97;;
26920;SDS011;14483;47.844;9.660;2022-12-07T11:52:30;13.10;;;7.05;;
26920;SDS011;14483;47.844;9.660;2022-12-07T11:54:58;14.93;;;8.13;;
26920;SDS011;14483;47.844;9.660;2022-12-07T11:57:28;12.80;;;7.43;;
26920;SDS011;14483;47.844;9.660;2022-12-07T11:59:59;13.25;;;7.32;;
26920;SDS011;14483;47.844;9.660;2022-12-07T12:02:27;13.45;;;7.38;;
26920;SDS011;14483;47.844;9.660;2022-12-07T12:04:55;13.43;;;7.40;;
26920;SDS011;14483;47.844;9.660;2022-12-07T12:07:24;15.23;;;7.97;;
26920;SDS011;14483;47.844;9.660;2022-12-07T12:09:53;17.48;;;7.75;;
26920;SDS011;14483;47.844;9.660;2022-12-07T12:15:06;12.60;;;6.68;;
26920;SDS011;14483;47.844;9.660;2022-12-07T12:17:42;13.82;;;7.75;;
26920;SDS011;14483;47.844;9.660;2022-12-07T12:20:19;14.05;;;7.63;;
26920;SDS011;14483;47.844;9.660;2022-12-07T12:22:48;14.93;;;6.95;;
26920;SDS011;14483;47.844;9.660;2022-12-07T12:25:19;13.10;;;6.90;;
26920;SDS011;14483;47.844;9.660;2022-12-07T12:27:46;13.48;;;7.65;;
26920;SDS011;14483;47.844;9.660;2022-12-07T12:30:24;13.18;;;7.55;;
26920;SDS011;14483;47.844;9.660;2022-12-07T12:32:51;13.75;;;8.23;;
26920;SDS011;14483;47.844;9.660;2022-12-07T12:35:22;12.48;;;6.35;;
26920;SDS011;14483;47.844;9.660;2022-12-07T12:37:53;14.18;;;7.72;;
26920;SDS011;14483;47.844;9.660;2022-12-07T12:40:40;14.00;;;7.93;;
26920;SDS011;14483;47.844;9.660;2022-12-07T12:45:48;12.93;;;7.50;;
26920;SDS011;14483;47.844;9.660;2022-12-07T12:48:27;11.88;;;7.18;;
26920;SDS011;14483;47.844;9.660;2022-12-07T12:53:35;12.60;;;7.30;;
26920;SDS011;14483;47.844;9.660;2022-12-07T12:56:10;13.05;;;7.05;;
26920;SDS011;14483;47.844;9.660;2022-12-07T12:58:43;14.80;;;8.68;;
26920;SDS011;14483;47.844;9.660;2022-12-07T13:01:37;12.73;;;7.57;;
26920;SDS011;14483;47.844;9.660;2022-12-07T13:04:14;12.65;;;6.78;;
26920;SDS011;14483;47.844;9.660;2022-12-07T13:06:43;12.57;;;7.20;;
26920;SDS011;14483;47.844;9.660;2022-12-07T13:09:16;11.65;;;7.05;;
26920;SDS011;14483;47.844;9.660;2022-12-07T13:11:45;12.60;;;6.93;;
26920;SDS011;14483;47.844;9.660;2022-12-07T13:16:56;16.08;;;6.40;;
26920;SDS011;14483;47.844;9.660;2022-12-07T13:25:09;15.43;;;6.88;;
26920;SDS011;14483;47.844;9.660;2022-12-07T13:27:39;9.38;;;6.00;;
26920;SDS011;14483;47.844;9.660;2022-12-07T13:30:09;10.73;;;6.50;;
26920;SDS011;14483;47.844;9.660;2022-12-07T13:32:39;12.63;;;6.65;;
26920;SDS011;14483;47.844;9.660;2022-12-07T13:37:47;11.68;;;6.55;;
26920;SDS011;14483;47.844;9.660;2022-12-07T13:40:16;11.35;;;6.70;;
26920;SDS011;14483;47.844;9.660;2022-12-07T13:42:45;13.93;;;6.80;;
26920;SDS011;14483;47.844;9.660;2022-12-07T13:45:20;10.52;;;6.20;;
26920;SDS011;14483;47.844;9.660;2022-12-07T13:47:48;11.13;;;6.60;;
26920;SDS011;14483;47.844;9.660;2022-12-07T13:50:21;13.07;;;7.07;;
26920;SDS011;14483;47.844;9.660;2022-12-07T13:52:48;11.32;;;6.45;;
26920;SDS011;14483;47.844;9.660;2022-12-07T13:55:15;10.85;;;6.50;;
26920;SDS011;14483;47.844;9.660;2022-12-07T13:57:42;10.95;;;6.43;;
26920;SDS011;14483;47.844;9.660;2022-12-07T14:00:15;13.20;;;7.05;;
26920;SDS011;14483;47.844;9.660;2022-12-07T14:02:54;18.30;;;7.38;;
26920;SDS011;14483;47.844;9.660;2022-12-07T14:05:23;11.13;;;6.60;;
26920;SDS011;14483;47.844;9.660;2022-12-07T14:07:53;13.15;;;7.05;;
26920;SDS011;14483;47.844;9.660;2022-12-07T14:10:23;15.43;;;7.47;;
26920;SDS011;14483;47.844;9.660;2022-12-07T14:12:50;12.75;;;6.70;;
26920;SDS011;14483;47.844;9.660;2022-12-07T14:15:20;13.05;;;7.35;;
26920;SDS011;14483;47.844;9.660;2022-12-07T14:17:50;12.40;;;6.60;;
26920;SDS011;14483;47.844;9.660;2022-12-07T14:20:30;12.98;;;7.40;;
26920;SDS011;14483;47.844;9.660;2022-12-07T14:22:56;11.27;;;6.03;;
26920;SDS011;14483;47.844;9.660;2022-12-07T14:25:23;11.63;;;6.47;;
26920;SDS011;14483;47.844;9.660;2022-12-07T14:27:51;19.02;;;7.25;;
26920;SDS011;14483;47.844;9.660;2022-12-07T14:30:22;12.60;;;7.30;;
26920;SDS011;14483;47.844;9.660;2022-12-07T14:32:50;18.55;;;7.43;;
26920;SDS011;14483;47.844;9.660;2022-12-07T14:35:17;13.18;;;7.47;;
26920;SDS011;14483;47.844;9.660;2022-12-07T14:37:46;13.45;;;7.63;;
26920;SDS011;14483;47.844;9.660;2022-12-07T14:40:12;18.83;;;7.97;;
26920;SDS011;14483;47.844;9.660;2022-12-07T14:42:39;16.83;;;8.13;;
26920;SDS011;14483;47.844;9.660;2022-12-07T14:45:10;23.60;;;8.27;;
26920;SDS011;14483;47.844;9.660;2022-12-07T14:47:40;13.25;;;8.13;;
26920;SDS011;14483;47.844;9.660;2022-12-07T14:50:07;16.83;;;9.27;;
26920;SDS011;14483;47.844;9.660;2022-12-07T14:52:34;13.00;;;7.63;;
26920;SDS011;14483;47.844;9.660;2022-12-07T14:55:00;15.82;;;7.72;;
26920;SDS011;14483;47.844;9.660;2022-12-07T14:57:27;15.85;;;8.90;;
26920;SDS011;14483;47.844;9.660;2022-12-07T14:59:53;16.38;;;9.43;;
26920;SDS011;14483;47.844;9.660;2022-12-07T15:02:19;16.98;;;9.35;;
26920;SDS011;14483;47.844;9.660;2022-12-07T15:04:47;21.08;;;10.35;;
26920;SDS011;14483;47.844;9.660;2022-12-07T15:07:15;18.42;;;9.32;;